IBS1553 LEMD-GCTS
Flight info
| Callsign | IBS1553 |
|---|---|
| Flight time | N/A |
| Altitude | 29000 |
| Route | CCS DCT ELVAR DCT TROIA DCT BEXAL UN866 KONBA |
| Aircraft | A320/M-SDE3FGHIRWY/LB1 |
Departure
| Time | 2026-05-04 15:24 |
|---|---|
| Airport | Adolfo Suárez Madrid–Barajas Airport (LEMD) |
Arrival
| Time | N/A |
|---|---|
| Airport | Tenerife Sur Airport (GCTS) |
| Time | Latitude | Longitude | Altitude | Speed | Heading |
|---|---|---|---|---|---|
| 2026-05-04 15:12 | 40.49004 | -3.58963 | 2022 ft | 0 kts | 271° |
| 2026-05-04 15:17 | 40.49004 | -3.58936 | 2022 ft | 4 kts | 263° |
| 2026-05-04 15:17 | 40.49027 | -3.58880 | 2032 ft | 4 kts | 187° |
| 2026-05-04 15:17 | 40.49037 | -3.58879 | 2031 ft | 0 kts | 180° |
| 2026-05-04 15:19 | 40.49020 | -3.58860 | 2022 ft | 7 kts | 128° |
| 2026-05-04 15:20 | 40.49033 | -3.58817 | 2027 ft | 5 kts | 21° |
| 2026-05-04 15:20 | 40.49108 | -3.58812 | 2030 ft | 13 kts | 0° |
| 2026-05-04 15:20 | 40.49201 | -3.58813 | 2022 ft | 14 kts | 3° |
| 2026-05-04 15:20 | 40.49240 | -3.58710 | 2025 ft | 15 kts | 90° |
| 2026-05-04 15:21 | 40.49241 | -3.58574 | 2030 ft | 15 kts | 89° |
| 2026-05-04 15:21 | 40.49242 | -3.58425 | 2015 ft | 18 kts | 90° |
| 2026-05-04 15:21 | 40.49243 | -3.58061 | 2003 ft | 22 kts | 89° |
| 2026-05-04 15:22 | 40.49243 | -3.57863 | 1996 ft | 21 kts | 89° |
| 2026-05-04 15:22 | 40.49245 | -3.57653 | 1988 ft | 20 kts | 91° |
| 2026-05-04 15:22 | 40.49364 | -3.57457 | 1984 ft | 15 kts | 20° |
| 2026-05-04 15:23 | 40.49479 | -3.57453 | 1986 ft | 21 kts | 359° |
| 2026-05-04 15:23 | 40.49810 | -3.57458 | 1985 ft | 84 kts | 359° |
| 2026-05-04 15:23 | 40.50604 | -3.57464 | 1994 ft | 143 kts | 358° |
| 2026-05-04 15:23 | 40.51764 | -3.57465 | 2053 ft | 184 kts | 355° |
| 2026-05-04 15:24 | 40.54379 | -3.57365 | 3187 ft | 192 kts | 7° |
| 2026-05-04 15:24 | 40.57173 | -3.56721 | 3999 ft | 223 kts | 11° |
| 2026-05-04 15:25 | 40.58720 | -3.56158 | 4413 ft | 237 kts | 12° |
| 2026-05-04 15:25 | 40.60316 | -3.55556 | 5189 ft | 240 kts | 13° |
| 2026-05-04 15:25 | 40.61923 | -3.54940 | 5984 ft | 241 kts | 12° |
| 2026-05-04 15:26 | 40.65232 | -3.54117 | 7467 ft | 245 kts | 1° |
| 2026-05-04 15:26 | 40.66945 | -3.53968 | 8211 ft | 248 kts | 0° |
| 2026-05-04 15:26 | 40.70069 | -3.55469 | 9593 ft | 250 kts | 312° |
| 2026-05-04 15:27 | 40.70968 | -3.57466 | 9970 ft | 262 kts | 283° |
| 2026-05-04 15:27 | 40.70978 | -3.62262 | 11380 ft | 268 kts | 253° |
| 2026-05-04 15:28 | 40.69014 | -3.66446 | 11932 ft | 273 kts | 232° |
| 2026-05-04 15:28 | 40.67814 | -3.68383 | 11951 ft | 273 kts | 232° |
| 2026-05-04 15:28 | 40.65476 | -3.72320 | 11953 ft | 272 kts | 241° |
| 2026-05-04 15:29 | 40.64746 | -3.74608 | 11954 ft | 277 kts | 256° |
| 2026-05-04 15:30 | 40.64293 | -3.86674 | 11974 ft | 359 kts | 268° |
| 2026-05-04 15:30 | 40.64054 | -3.96581 | 12970 ft | 365 kts | 267° |
| 2026-05-04 15:31 | 40.63885 | -4.03310 | 14261 ft | 372 kts | 267° |
| 2026-05-04 15:31 | 40.63799 | -4.06722 | 14876 ft | 374 kts | 267° |
| 2026-05-04 15:32 | 40.63525 | -4.17056 | 16753 ft | 379 kts | 267° |
| 2026-05-04 15:32 | 40.63339 | -4.24031 | 18000 ft | 382 kts | 267° |
| 2026-05-04 15:33 | 40.63146 | -4.31058 | 19022 ft | 386 kts | 267° |
| 2026-05-04 15:34 | 40.62845 | -4.41764 | 20393 ft | 394 kts | 267° |
| 2026-05-04 15:34 | 40.62741 | -4.45383 | 20826 ft | 397 kts | 267° |
| 2026-05-04 15:34 | 40.62242 | -4.52639 | 21649 ft | 401 kts | 256° |
| 2026-05-04 15:35 | 40.59996 | -4.59309 | 22438 ft | 407 kts | 237° |
| 2026-05-04 15:35 | 40.58303 | -4.62306 | 22876 ft | 408 kts | 234° |
| 2026-05-04 15:35 | 40.56575 | -4.65337 | 23278 ft | 410 kts | 234° |
| 2026-05-04 15:36 | 40.53141 | -4.71381 | 23946 ft | 414 kts | 235° |
| 2026-05-04 15:36 | 40.51420 | -4.74416 | 24268 ft | 415 kts | 235° |
| 2026-05-04 15:36 | 40.49690 | -4.77462 | 24580 ft | 416 kts | 235° |
| 2026-05-04 15:37 | 40.47954 | -4.80511 | 24875 ft | 417 kts | 235° |
| 2026-05-04 15:37 | 40.46209 | -4.83565 | 25172 ft | 419 kts | 234° |
| 2026-05-04 15:37 | 40.44457 | -4.86624 | 25453 ft | 420 kts | 235° |
| 2026-05-04 15:37 | 40.42701 | -4.89692 | 25737 ft | 420 kts | 235° |
| 2026-05-04 15:38 | 40.40943 | -4.92761 | 25978 ft | 422 kts | 235° |
| 2026-05-04 15:38 | 40.39174 | -4.95846 | 26253 ft | 423 kts | 235° |
| 2026-05-04 15:38 | 40.37405 | -4.98928 | 26527 ft | 423 kts | 235° |
| 2026-05-04 15:38 | 40.35633 | -5.02008 | 26771 ft | 423 kts | 235° |
| 2026-05-04 15:39 | 40.33864 | -5.05081 | 27107 ft | 422 kts | 235° |
| 2026-05-04 15:39 | 40.32100 | -5.08147 | 27452 ft | 420 kts | 235° |
| 2026-05-04 15:39 | 40.28586 | -5.14236 | 28151 ft | 418 kts | 235° |
| 2026-05-04 15:40 | 40.26834 | -5.17269 | 28487 ft | 417 kts | 235° |
| 2026-05-04 15:40 | 40.25089 | -5.20291 | 28851 ft | 416 kts | 235° |
| 2026-05-04 15:40 | 40.23343 | -5.23310 | 28952 ft | 417 kts | 235° |
| 2026-05-04 15:41 | 40.19828 | -5.29380 | 28956 ft | 419 kts | 235° |
| 2026-05-04 15:41 | 40.16308 | -5.35440 | 28952 ft | 418 kts | 235° |
| 2026-05-04 15:42 | 40.12790 | -5.41490 | 28954 ft | 418 kts | 235° |
| 2026-05-04 15:42 | 40.09267 | -5.47539 | 28953 ft | 418 kts | 236° |
| 2026-05-04 15:43 | 40.05744 | -5.53587 | 28946 ft | 418 kts | 236° |
| 2026-05-04 15:43 | 40.02238 | -5.59574 | 28944 ft | 418 kts | 235° |
| 2026-05-04 15:44 | 39.98702 | -5.65596 | 28945 ft | 418 kts | 235° |
| 2026-05-04 15:44 | 39.95167 | -5.71611 | 28945 ft | 418 kts | 236° |
| 2026-05-04 15:45 | 39.91607 | -5.77666 | 28946 ft | 418 kts | 236° |
| 2026-05-04 15:45 | 39.88070 | -5.83674 | 28923 ft | 418 kts | 236° |
| 2026-05-04 15:46 | 39.84524 | -5.89680 | 28936 ft | 418 kts | 236° |
| 2026-05-04 15:46 | 39.80999 | -5.95636 | 28944 ft | 418 kts | 236° |
| 2026-05-04 15:47 | 39.77446 | -6.01627 | 28956 ft | 418 kts | 236° |
| 2026-05-04 15:47 | 39.73889 | -6.07609 | 28959 ft | 418 kts | 236° |
| 2026-05-04 15:48 | 39.70329 | -6.13583 | 28956 ft | 418 kts | 236° |
| 2026-05-04 15:48 | 39.64998 | -6.22526 | 28960 ft | 418 kts | 236° |
| 2026-05-04 15:49 | 39.61442 | -6.28487 | 28933 ft | 417 kts | 236° |
| 2026-05-04 15:49 | 39.57881 | -6.34430 | 28948 ft | 418 kts | 236° |
| 2026-05-04 15:50 | 39.54313 | -6.40370 | 28954 ft | 418 kts | 236° |
| 2026-05-04 15:50 | 39.51029 | -6.46523 | 28961 ft | 413 kts | 244° |
| 2026-05-04 15:51 | 39.48480 | -6.53167 | 28978 ft | 411 kts | 248° |
| 2026-05-04 15:51 | 39.46113 | -6.59908 | 28981 ft | 411 kts | 248° |